createdAt,value
2018-12-30T00:00:58.665Z,0.00
2018-12-30T00:01:59.326Z,0.00
2018-12-30T00:02:59.348Z,0.00
2018-12-30T00:04:00.768Z,0.00
2018-12-30T00:04:59.804Z,0.00
2018-12-30T00:05:59.309Z,0.00
2018-12-30T00:07:00.304Z,0.00
2018-12-30T00:08:00.313Z,0.00
2018-12-30T00:09:02.304Z,0.00
2018-12-30T00:09:58.946Z,0.00
2018-12-30T00:11:00.808Z,0.00
2018-12-30T00:12:01.122Z,0.00
2018-12-30T00:13:03.264Z,0.00
2018-12-30T00:14:00.653Z,0.00
2018-12-30T00:15:15.310Z,0.00
2018-12-30T00:15:59.901Z,0.00
2018-12-30T00:17:01.810Z,0.00
2018-12-30T00:18:01.305Z,0.00
2018-12-30T00:19:02.359Z,0.00
2018-12-30T00:20:02.315Z,0.00
2018-12-30T00:21:08.780Z,0.00
2018-12-30T00:22:04.814Z,0.00
2018-12-30T00:23:01.123Z,0.00
2018-12-30T00:24:09.329Z,0.00
2018-12-30T00:25:01.559Z,0.00
2018-12-30T00:26:01.692Z,0.00
2018-12-30T00:27:01.907Z,0.00
2018-12-30T00:28:02.117Z,0.00
2018-12-30T00:29:03.829Z,0.00
2018-12-30T00:30:06.305Z,0.00
2018-12-30T00:31:04.312Z,0.00
2018-12-30T00:32:09.829Z,0.00
2018-12-30T00:33:03.031Z,0.00
2018-12-30T00:34:03.566Z,0.00
2018-12-30T00:35:07.305Z,0.00
2018-12-30T00:36:06.321Z,0.00
2018-12-30T00:37:05.343Z,0.00
2018-12-30T00:38:03.883Z,0.00
2018-12-30T00:39:04.082Z,0.00
2018-12-30T00:40:05.828Z,0.00
2018-12-30T00:41:04.419Z,0.00
2018-12-30T00:42:06.314Z,0.00
2018-12-30T00:43:08.311Z,0.00
2018-12-30T00:44:07.080Z,0.00
2018-12-30T00:45:06.811Z,0.00
2018-12-30T00:46:06.815Z,0.00
2018-12-30T00:47:21.346Z,0.00
2018-12-30T00:48:21.323Z,0.00
2018-12-30T00:49:07.308Z,0.00
2018-12-30T00:50:13.806Z,0.00
2018-12-30T00:51:06.048Z,0.00
2018-12-30T00:52:07.835Z,0.00
2018-12-30T00:53:06.278Z,0.00
2018-12-30T00:54:06.510Z,0.00
2018-12-30T00:55:14.305Z,0.00
2018-12-30T00:56:08.837Z,0.00
2018-12-30T00:57:11.758Z,0.00
2018-12-30T00:58:07.255Z,0.00
2018-12-30T00:59:08.379Z,0.00
2018-12-30T01:00:07.588Z,0.00
2018-12-30T01:01:09.322Z,0.00
2018-12-30T01:02:09.808Z,0.00
2018-12-30T01:03:08.078Z,0.00
2018-12-30T01:04:11.832Z,0.00
2018-12-30T01:05:12.307Z,0.00
2018-12-30T01:06:09.633Z,0.00
2018-12-30T01:07:08.839Z,0.00
2018-12-30T01:08:12.813Z,0.00
2018-12-30T01:09:13.836Z,0.00
2018-12-30T01:10:09.437Z,0.00
2018-12-30T01:11:11.322Z,0.00
2018-12-30T01:12:10.852Z,0.00
2018-12-30T01:13:10.936Z,0.00
2018-12-30T01:14:11.813Z,0.00
2018-12-30T01:15:10.153Z,0.00
2018-12-30T01:16:10.396Z,0.00
2018-12-30T01:17:12.326Z,0.00
2018-12-30T01:18:10.652Z,0.00
2018-12-30T01:19:10.861Z,0.00
2018-12-30T01:20:12.804Z,0.00
2018-12-30T01:21:11.257Z,0.00
2018-12-30T01:22:13.305Z,0.00
2018-12-30T01:23:11.640Z,0.00
2018-12-30T01:24:13.820Z,0.00
2018-12-30T01:25:12.080Z,0.00
2018-12-30T01:26:12.823Z,0.00
2018-12-30T01:27:13.365Z,0.00
2018-12-30T01:28:16.325Z,0.00
2018-12-30T01:29:14.334Z,0.00
2018-12-30T01:30:12.891Z,0.00
2018-12-30T01:31:14.811Z,0.00
2018-12-30T01:32:14.806Z,0.00
2018-12-30T01:33:13.455Z,0.00
2018-12-30T01:34:15.323Z,0.00
2018-12-30T01:35:15.337Z,0.00
2018-12-30T01:36:13.909Z,0.00
2018-12-30T01:37:15.815Z,0.00
2018-12-30T01:38:17.848Z,0.00
2018-12-30T01:39:14.378Z,0.00
2018-12-30T01:40:18.308Z,0.00
2018-12-30T01:41:18.318Z,0.00
2018-12-30T01:42:15.895Z,0.00
2018-12-30T01:43:18.811Z,0.00
2018-12-30T01:44:15.255Z,0.00
2018-12-30T01:45:17.265Z,0.00
2018-12-30T01:46:17.307Z,0.00
2018-12-30T01:47:16.794Z,0.00
2018-12-30T01:48:17.822Z,0.00
2018-12-30T01:49:16.027Z,0.00
2018-12-30T01:50:17.248Z,0.00
2018-12-30T01:51:16.500Z,0.00
2018-12-30T01:52:18.310Z,0.00
2018-12-30T01:53:16.884Z,0.00
2018-12-30T01:54:17.126Z,0.00
2018-12-30T01:55:17.312Z,0.00
2018-12-30T01:56:17.519Z,0.00
2018-12-30T01:57:17.723Z,0.00
2018-12-30T01:58:18.932Z,0.00
2018-12-30T01:59:21.834Z,0.00
2018-12-30T02:00:19.806Z,0.00
2018-12-30T02:01:20.319Z,0.00
2018-12-30T02:02:20.312Z,0.00
2018-12-30T02:03:20.377Z,0.00
2018-12-30T02:04:18.895Z,0.00
2018-12-30T02:05:19.121Z,0.00
2018-12-30T02:06:19.315Z,0.00
2018-12-30T02:07:19.538Z,0.00
2018-12-30T02:08:21.308Z,0.00
2018-12-30T02:09:21.809Z,0.00
2018-12-30T02:10:21.804Z,0.00
2018-12-30T02:11:21.816Z,0.00
2018-12-30T02:12:22.819Z,0.00
2018-12-30T02:13:20.469Z,0.00
2018-12-30T02:14:22.311Z,0.00
2018-12-30T02:15:20.772Z,0.00
2018-12-30T02:16:21.769Z,0.00
2018-12-30T02:17:21.110Z,0.00
2018-12-30T02:18:23.864Z,0.00
2018-12-30T02:19:28.384Z,0.00
2018-12-30T02:20:23.321Z,0.00
2018-12-30T02:21:25.310Z,0.00
2018-12-30T02:22:22.005Z,0.00
2018-12-30T02:23:25.829Z,0.00
2018-12-30T02:24:22.413Z,0.00
2018-12-30T02:25:22.603Z,0.00
2018-12-30T02:26:26.807Z,0.00
2018-12-30T02:27:23.021Z,0.00
2018-12-30T02:28:24.816Z,0.00
2018-12-30T02:29:25.351Z,0.00
2018-12-30T02:30:27.310Z,0.00
2018-12-30T02:31:25.306Z,0.00
2018-12-30T02:32:24.901Z,0.00
2018-12-30T02:33:24.115Z,0.00
2018-12-30T02:34:24.325Z,0.00
2018-12-30T02:35:26.317Z,0.00
2018-12-30T02:36:28.335Z,0.00
2018-12-30T02:37:26.325Z,0.00
2018-12-30T02:38:31.814Z,0.00
2018-12-30T02:39:26.317Z,0.00
2018-12-30T02:40:29.320Z,0.00
2018-12-30T02:41:41.336Z,0.00
2018-12-30T02:42:25.790Z,0.00
2018-12-30T02:43:27.859Z,0.00
2018-12-30T02:44:27.361Z,0.00
2018-12-30T02:45:28.343Z,0.00
2018-12-30T02:46:28.336Z,0.00
2018-12-30T02:47:27.661Z,0.00
2018-12-30T02:48:26.891Z,0.00
2018-12-30T02:49:30.808Z,0.00
2018-12-30T02:50:27.262Z,0.00
2018-12-30T02:51:27.503Z,0.00
2018-12-30T02:52:27.634Z,0.00
2018-12-30T02:53:27.809Z,0.00
2018-12-30T02:54:28.016Z,0.00
2018-12-30T02:55:29.812Z,0.00
2018-12-30T02:56:28.401Z,0.00
2018-12-30T02:57:30.439Z,0.00
2018-12-30T02:58:36.320Z,0.00
2018-12-30T02:59:28.920Z,0.00
2018-12-30T03:00:29.020Z,0.00
2018-12-30T03:01:30.830Z,0.00
2018-12-30T03:02:30.396Z,0.00
2018-12-30T03:03:31.383Z,0.00
2018-12-30T03:04:30.762Z,0.00
2018-12-30T03:05:32.862Z,0.00
2018-12-30T03:06:31.817Z,0.00
2018-12-30T03:07:31.828Z,0.00
2018-12-30T03:08:30.432Z,0.00
2018-12-30T03:09:32.309Z,0.00
2018-12-30T03:10:31.765Z,0.00
2018-12-30T03:11:31.984Z,0.00
2018-12-30T03:12:33.847Z,0.00
2018-12-30T03:13:31.342Z,0.00
2018-12-30T03:14:31.478Z,0.00
2018-12-30T03:15:33.320Z,0.00
2018-12-30T03:16:33.391Z,0.00
2018-12-30T03:17:33.813Z,0.00
2018-12-30T03:18:43.060Z,0.00
2018-12-30T03:19:32.279Z,0.00
2018-12-30T03:20:32.488Z,0.00
2018-12-30T03:21:36.312Z,0.00
2018-12-30T03:22:34.811Z,0.00
2018-12-30T03:23:35.837Z,0.00
2018-12-30T03:24:33.183Z,0.00
2018-12-30T03:25:35.307Z,0.00
2018-12-30T03:26:33.506Z,0.00
2018-12-30T03:27:33.744Z,0.00
2018-12-30T03:28:33.826Z,0.00
2018-12-30T03:29:35.811Z,0.00
2018-12-30T03:30:37.845Z,0.00
2018-12-30T03:31:36.348Z,0.00
2018-12-30T03:32:36.322Z,0.00
2018-12-30T03:33:36.762Z,0.00
2018-12-30T03:34:34.983Z,0.00
2018-12-30T03:35:36.851Z,0.00
2018-12-30T03:36:36.815Z,0.00
2018-12-30T03:37:36.528Z,0.00
2018-12-30T03:38:35.761Z,0.00
2018-12-30T03:39:37.821Z,0.00
2018-12-30T03:40:36.079Z,0.00
2018-12-30T03:41:36.219Z,0.00
2018-12-30T03:42:37.517Z,0.00
2018-12-30T03:43:36.707Z,0.00
2018-12-30T03:44:37.798Z,0.00
2018-12-30T03:45:36.996Z,0.00
2018-12-30T03:46:37.226Z,0.00
2018-12-30T03:47:45.343Z,0.00
2018-12-30T03:48:37.644Z,0.00
2018-12-30T03:49:37.909Z,0.00
2018-12-30T03:50:38.063Z,0.00
2018-12-30T03:51:53.819Z,0.00
2018-12-30T03:52:38.395Z,0.00
2018-12-30T03:53:38.615Z,0.00
2018-12-30T03:54:38.818Z,0.00
2018-12-30T03:55:40.811Z,0.00
2018-12-30T03:56:39.191Z,0.00
2018-12-30T03:57:39.348Z,0.00
2018-12-30T03:58:39.555Z,0.00
2018-12-30T03:59:39.795Z,0.00
2018-12-30T04:00:41.818Z,0.00
2018-12-30T04:01:40.023Z,0.00
2018-12-30T04:02:46.815Z,0.00
2018-12-30T04:03:48.356Z,0.00
2018-12-30T04:04:47.341Z,0.00
2018-12-30T04:05:44.419Z,0.00
2018-12-30T04:06:42.205Z,0.00
2018-12-30T04:07:40.913Z,0.00
2018-12-30T04:08:42.813Z,0.00
2018-12-30T04:09:42.816Z,0.00
2018-12-30T04:10:49.364Z,0.00
2018-12-30T04:11:47.349Z,0.00
2018-12-30T04:12:43.004Z,0.00
2018-12-30T04:13:41.977Z,0.00
2018-12-30T04:14:42.192Z,0.00
2018-12-30T04:15:44.316Z,0.00
2018-12-30T04:16:45.313Z,0.00
2018-12-30T04:17:42.720Z,0.00
2018-12-30T04:18:42.948Z,0.00
2018-12-30T04:19:43.101Z,0.00
2018-12-30T04:20:46.837Z,0.00
2018-12-30T04:21:45.313Z,0.00
2018-12-30T04:22:45.326Z,0.00
2018-12-30T04:23:45.334Z,0.00
2018-12-30T04:24:44.927Z,0.00
2018-12-30T04:25:45.827Z,0.00
2018-12-30T04:26:45.848Z,0.00
2018-12-30T04:27:44.494Z,0.00
2018-12-30T04:28:46.359Z,0.00
2018-12-30T04:29:44.839Z,0.00
2018-12-30T04:30:46.819Z,0.00
2018-12-30T04:31:48.814Z,0.00
2018-12-30T04:32:46.815Z,0.00
2018-12-30T04:33:53.312Z,0.00
2018-12-30T04:34:45.562Z,0.00
2018-12-30T04:35:47.314Z,0.00
2018-12-30T04:36:47.813Z,0.00
2018-12-30T04:37:46.025Z,0.00
2018-12-30T04:38:47.811Z,0.00
2018-12-30T04:39:48.369Z,0.00
2018-12-30T04:40:49.328Z,0.00
2018-12-30T04:41:46.675Z,0.00
2018-12-30T04:42:46.879Z,0.00
2018-12-30T04:43:48.825Z,0.00
2018-12-30T04:44:48.842Z,0.00
2018-12-30T04:45:47.426Z,0.00
2018-12-30T04:46:47.660Z,0.00
2018-12-30T04:47:49.312Z,0.00
2018-12-30T04:48:51.812Z,0.00
2018-12-30T04:49:49.812Z,0.00
2018-12-30T04:50:49.817Z,0.00
2018-12-30T04:51:48.343Z,0.00
2018-12-30T04:52:52.322Z,0.00
2018-12-30T04:53:56.319Z,0.00
2018-12-30T04:54:49.765Z,0.00
2018-12-30T04:55:50.522Z,0.00
2018-12-30T04:56:51.870Z,0.00
2018-12-30T04:57:49.301Z,0.00
2018-12-30T04:59:01.332Z,0.00
2018-12-30T04:59:49.665Z,0.00
2018-12-30T05:00:51.826Z,0.00
2018-12-30T05:01:50.039Z,0.00
2018-12-30T05:02:50.241Z,0.00
2018-12-30T05:03:50.446Z,0.00
2018-12-30T05:04:50.641Z,0.00
2018-12-30T05:05:50.889Z,0.00
2018-12-30T05:06:52.119Z,0.00
2018-12-30T05:07:51.359Z,0.00
2018-12-30T05:08:51.444Z,0.00
2018-12-30T05:09:53.315Z,0.00
2018-12-30T05:10:51.850Z,0.00
2018-12-30T05:11:53.815Z,0.00
2018-12-30T05:12:52.304Z,0.00
2018-12-30T05:13:54.343Z,0.00
2018-12-30T05:14:52.556Z,0.00
2018-12-30T05:15:52.689Z,0.00
2018-12-30T05:16:54.818Z,0.00
2018-12-30T05:17:54.815Z,0.00
2018-12-30T05:18:53.160Z,0.00
2018-12-30T05:19:57.313Z,0.00
2018-12-30T05:20:54.567Z,0.00
2018-12-30T05:21:53.725Z,0.00
2018-12-30T05:22:53.959Z,0.00
2018-12-30T05:23:56.877Z,0.00
2018-12-30T05:24:54.192Z,0.00
2018-12-30T05:25:54.395Z,0.00
2018-12-30T05:26:54.600Z,0.00
2018-12-30T05:27:58.348Z,0.00
2018-12-30T05:28:55.776Z,0.00
2018-12-30T05:29:56.850Z,0.00
2018-12-30T05:30:55.364Z,0.00
2018-12-30T05:31:58.331Z,0.00
2018-12-30T05:32:55.710Z,0.00
2018-12-30T05:33:57.863Z,0.00
2018-12-30T05:34:57.812Z,0.00
2018-12-30T05:35:57.815Z,0.00
2018-12-30T05:37:04.333Z,0.00
2018-12-30T05:37:58.383Z,0.00
2018-12-30T05:38:56.713Z,0.00
2018-12-30T05:39:56.916Z,0.00
2018-12-30T05:41:00.805Z,0.00
2018-12-30T05:41:57.313Z,0.00
2018-12-30T05:42:59.318Z,0.00
2018-12-30T05:44:00.356Z,0.00
2018-12-30T05:45:13.312Z,0.00
2018-12-30T05:45:59.050Z,0.00
2018-12-30T05:46:58.247Z,0.00
2018-12-30T05:48:00.389Z,0.00
2018-12-30T05:48:58.608Z,0.00
2018-12-30T05:50:00.338Z,0.00
2018-12-30T05:50:58.954Z,0.00
2018-12-30T05:52:00.862Z,0.00
2018-12-30T05:53:02.814Z,0.00
2018-12-30T05:53:59.412Z,0.00
2018-12-30T05:55:01.319Z,0.00
2018-12-30T05:55:59.644Z,0.00
2018-12-30T05:57:02.787Z,0.00
2018-12-30T05:58:00.001Z,0.00
2018-12-30T05:59:01.832Z,0.00
2018-12-30T06:00:04.318Z,0.00
2018-12-30T06:01:00.534Z,0.00
2018-12-30T06:02:00.737Z,0.00
2018-12-30T06:03:02.814Z,0.00
2018-12-30T06:04:01.182Z,0.00
2018-12-30T06:05:02.212Z,0.00
2018-12-30T06:06:01.552Z,0.00
2018-12-30T06:07:01.766Z,0.00
2018-12-30T06:08:07.828Z,0.00
2018-12-30T06:09:02.159Z,0.00
2018-12-30T06:10:04.315Z,0.00
2018-12-30T06:11:05.346Z,0.00
2018-12-30T06:12:18.317Z,0.00
2018-12-30T06:13:02.874Z,0.00
2018-12-30T06:14:04.875Z,0.00
2018-12-30T06:15:04.781Z,0.00
2018-12-30T06:16:07.324Z,0.00
2018-12-30T06:17:05.368Z,0.00
2018-12-30T06:18:03.701Z,0.00
2018-12-30T06:19:05.867Z,0.00
2018-12-30T06:20:06.836Z,0.00
2018-12-30T06:21:04.185Z,0.00
2018-12-30T06:22:07.400Z,0.00
2018-12-30T06:23:06.358Z,0.00
2018-12-30T06:24:04.701Z,0.00
2018-12-30T06:25:06.817Z,0.00
2018-12-30T06:26:05.765Z,0.00
2018-12-30T06:27:06.825Z,0.00
2018-12-30T06:28:07.315Z,0.00
2018-12-30T06:29:07.316Z,0.00
2018-12-30T06:30:05.685Z,0.00
2018-12-30T06:31:21.276Z,0.00
2018-12-30T06:32:07.859Z,0.00
2018-12-30T06:33:07.242Z,0.00
2018-12-30T06:34:06.333Z,0.00
2018-12-30T06:35:08.345Z,0.00
2018-12-30T06:36:08.320Z,0.00
2018-12-30T06:37:08.829Z,0.00
2018-12-30T06:38:08.870Z,0.00
2018-12-30T06:39:10.816Z,0.00
2018-12-30T06:40:11.333Z,0.00
2018-12-30T06:41:09.314Z,0.00
2018-12-30T06:42:09.353Z,0.00
2018-12-30T06:43:09.813Z,0.00
2018-12-30T06:44:14.135Z,0.00
2018-12-30T06:45:08.347Z,0.00
2018-12-30T06:46:08.555Z,0.00
2018-12-30T06:47:12.335Z,0.00
2018-12-30T06:48:08.908Z,0.00
2018-12-30T06:49:10.826Z,0.00
2018-12-30T06:50:10.814Z,0.00
2018-12-30T06:51:09.387Z,0.00
2018-12-30T06:52:09.630Z,0.00
2018-12-30T06:53:09.830Z,0.00
2018-12-30T06:54:11.814Z,0.00
2018-12-30T06:55:11.288Z,4.00
2018-12-30T06:56:11.494Z,4.00
2018-12-30T06:57:18.318Z,0.00
2018-12-30T06:58:10.897Z,0.00
2018-12-30T06:59:12.824Z,4.00
2018-12-30T07:00:11.278Z,4.00
2018-12-30T07:01:11.482Z,4.00
2018-12-30T07:02:13.327Z,8.00
2018-12-30T07:03:12.788Z,8.00
2018-12-30T07:04:13.828Z,8.00
2018-12-30T07:05:13.815Z,8.00
2018-12-30T07:06:12.277Z,8.00
2018-12-30T07:07:20.361Z,12.00
2018-12-30T07:08:12.687Z,12.00
2018-12-30T07:09:14.857Z,12.00
2018-12-30T07:10:16.832Z,20.00
2018-12-30T07:11:14.289Z,20.00
2018-12-30T07:12:13.548Z,20.00
2018-12-30T07:13:13.611Z,20.00
2018-12-30T07:14:13.823Z,20.00
2018-12-30T07:15:17.854Z,28.00
2018-12-30T07:16:17.819Z,28.00
2018-12-30T07:17:15.814Z,32.00
2018-12-30T07:18:18.327Z,36.00
2018-12-30T07:19:14.568Z,44.00
2018-12-30T07:20:16.317Z,48.00
2018-12-30T07:21:14.966Z,44.00
2018-12-30T07:22:15.188Z,52.00
2018-12-30T07:23:15.397Z,56.00
2018-12-30T07:24:15.632Z,60.00
2018-12-30T07:25:15.839Z,52.00
2018-12-30T07:26:23.816Z,56.00
2018-12-30T07:27:16.273Z,68.00
2018-12-30T07:28:20.327Z,64.00
2018-12-30T07:29:18.373Z,68.00
2018-12-30T07:30:16.778Z,72.00
2018-12-30T07:31:18.833Z,84.00
2018-12-30T07:32:23.648Z,116.00
2018-12-30T07:33:18.822Z,112.00
2018-12-30T07:34:21.329Z,132.00
2018-12-30T07:35:19.346Z,136.00
2018-12-30T07:36:17.791Z,136.00
2018-12-30T07:37:23.826Z,144.00
2018-12-30T07:38:18.210Z,148.00
2018-12-30T07:39:18.270Z,156.00
2018-12-30T07:40:20.316Z,164.00
2018-12-30T07:41:18.666Z,160.00
2018-12-30T07:42:18.884Z,156.00
2018-12-30T07:43:20.864Z,144.00
2018-12-30T07:44:20.863Z,148.00
2018-12-30T07:45:19.530Z,168.00
2018-12-30T07:46:20.878Z,196.00
2018-12-30T07:47:20.972Z,216.00
2018-12-30T07:48:21.821Z,212.00
2018-12-30T07:49:20.432Z,200.00
2018-12-30T07:50:23.400Z,208.00
2018-12-30T07:51:22.328Z,212.00
2018-12-30T07:52:24.837Z,212.00
2018-12-30T07:53:22.837Z,228.00
2018-12-30T07:54:22.260Z,232.00
2018-12-30T07:55:22.491Z,212.00
2018-12-30T07:56:23.317Z,204.00
2018-12-30T07:57:21.808Z,236.00
2018-12-30T07:58:44.826Z,228.00
2018-12-30T07:59:22.121Z,244.00
2018-12-30T08:00:22.333Z,296.00
2018-12-30T08:01:22.540Z,284.00
2018-12-30T08:02:22.854Z,296.00
2018-12-30T08:03:24.827Z,300.00
2018-12-30T08:04:24.036Z,320.00
2018-12-30T08:05:23.246Z,420.00
2018-12-30T08:06:25.361Z,396.00
2018-12-30T08:07:25.321Z,428.00
2018-12-30T08:08:25.336Z,512.00
2018-12-30T08:09:24.954Z,600.00
2018-12-30T08:10:25.822Z,596.00
2018-12-30T08:11:24.280Z,608.00
2018-12-30T08:12:24.485Z,580.00
2018-12-30T08:13:24.687Z,564.00
2018-12-30T08:14:24.900Z,524.00
2018-12-30T08:15:40.817Z,452.00
2018-12-30T08:16:25.253Z,436.00
2018-12-30T08:17:27.318Z,484.00
2018-12-30T08:18:25.681Z,544.00
2018-12-30T08:19:28.359Z,536.00
2018-12-30T08:20:28.861Z,504.00
2018-12-30T08:21:26.060Z,564.00
2018-12-30T08:22:26.298Z,528.00
2018-12-30T08:23:28.332Z,512.00
2018-12-30T08:24:28.333Z,560.00
2018-12-30T08:25:26.675Z,504.00
2018-12-30T08:26:26.873Z,456.00
2018-12-30T08:27:27.080Z,540.00
2018-12-30T08:28:28.819Z,588.00
2018-12-30T08:29:27.405Z,684.00
2018-12-30T08:30:28.661Z,748.00
2018-12-30T08:31:29.317Z,760.00
2018-12-30T08:32:28.031Z,728.00
2018-12-30T08:33:28.251Z,768.00
2018-12-30T08:34:30.334Z,800.00
2018-12-30T08:35:30.401Z,992.00
2018-12-30T08:36:30.327Z,1264.00
2018-12-30T08:37:28.938Z,1144.00
2018-12-30T08:38:32.826Z,1184.00
2018-12-30T08:39:30.821Z,1268.00
2018-12-30T08:40:29.278Z,1684.00
2018-12-30T08:41:31.359Z,1908.00
2018-12-30T08:42:30.704Z,1832.00
2018-12-30T08:43:31.827Z,1508.00
2018-12-30T08:44:31.864Z,1420.00
2018-12-30T08:45:31.822Z,1160.00
2018-12-30T08:46:30.421Z,1392.00
2018-12-30T08:47:32.331Z,1696.00
2018-12-30T08:48:34.334Z,1348.00
2018-12-30T08:49:30.788Z,1300.00
2018-12-30T08:50:34.820Z,1436.00
2018-12-30T08:51:34.820Z,1436.00
2018-12-30T08:52:33.505Z,1652.00
2018-12-30T08:53:33.361Z,1844.00
2018-12-30T08:54:31.570Z,1960.00
2018-12-30T08:55:31.779Z,1560.00
2018-12-30T08:56:33.826Z,1440.00
2018-12-30T08:57:33.817Z,1256.00
2018-12-30T08:58:32.332Z,1096.00
2018-12-30T08:59:36.318Z,1256.00
2018-12-30T09:00:36.336Z,1292.00
2018-12-30T09:01:32.709Z,1276.00
2018-12-30T09:02:36.336Z,1376.00
2018-12-30T09:03:32.925Z,1280.00
2018-12-30T09:04:33.266Z,1152.00
2018-12-30T09:05:33.337Z,1084.00
2018-12-30T09:06:34.567Z,1076.00
2018-12-30T09:07:37.325Z,1160.00
2018-12-30T09:08:37.818Z,1224.00
2018-12-30T09:09:35.828Z,1196.00
2018-12-30T09:10:35.846Z,1304.00
2018-12-30T09:11:34.322Z,1488.00
2018-12-30T09:12:38.341Z,1224.00
2018-12-30T09:13:37.333Z,1024.00
2018-12-30T09:14:34.795Z,1196.00
2018-12-30T09:15:38.834Z,1088.00
2018-12-30T09:16:35.191Z,1268.00
2018-12-30T09:17:35.407Z,1420.00
2018-12-30T09:18:37.339Z,1204.00
2018-12-30T09:19:35.785Z,1200.00
2018-12-30T09:20:39.860Z,1160.00
2018-12-30T09:21:41.854Z,1008.00
2018-12-30T09:22:39.822Z,1256.00
2018-12-30T09:23:37.425Z,1268.00
2018-12-30T09:24:40.324Z,1108.00
2018-12-30T09:25:37.918Z,1132.00
2018-12-30T09:26:37.130Z,1096.00
2018-12-30T09:27:39.331Z,1008.00
2018-12-30T09:28:39.322Z,1076.00
2018-12-30T09:29:40.336Z,1108.00
2018-12-30T09:30:38.787Z,1076.00
2018-12-30T09:31:39.827Z,984.00
2018-12-30T09:32:39.830Z,1284.00
2018-12-30T09:33:38.272Z,1264.00
2018-12-30T09:34:40.338Z,1332.00
2018-12-30T09:35:38.677Z,1288.00
2018-12-30T09:36:38.884Z,1424.00
2018-12-30T09:37:40.875Z,1712.00
2018-12-30T09:38:40.824Z,2024.00
2018-12-30T09:39:39.403Z,1980.00
2018-12-30T09:40:39.543Z,1944.00
2018-12-30T09:41:46.336Z,1988.00
2018-12-30T09:42:39.898Z,2012.00
2018-12-30T09:43:41.826Z,2160.00
2018-12-30T09:44:46.831Z,2156.00
2018-12-30T09:45:40.407Z,2136.00
2018-12-30T09:46:40.632Z,2184.00
2018-12-30T09:47:41.760Z,2388.00
2018-12-30T09:48:44.821Z,2352.00
2018-12-30T09:49:48.845Z,2348.00
2018-12-30T09:50:44.866Z,2248.00
2018-12-30T09:51:42.826Z,2244.00
2018-12-30T09:52:48.378Z,2008.00
2018-12-30T09:53:45.197Z,1768.00
2018-12-30T09:54:41.802Z,1772.00
2018-12-30T09:55:41.987Z,1784.00
2018-12-30T09:56:45.829Z,1804.00
2018-12-30T09:57:44.338Z,2012.00
2018-12-30T09:58:42.569Z,2008.00
2018-12-30T09:59:46.325Z,2056.00
2018-12-30T10:00:44.824Z,2316.00
2018-12-30T10:01:44.821Z,2280.00
2018-12-30T10:02:48.856Z,2892.00
2018-12-30T10:03:43.332Z,3260.00
2018-12-30T10:04:47.337Z,3436.00
2018-12-30T10:05:44.547Z,3240.00
2018-12-30T10:06:43.764Z,2948.00
2018-12-30T10:07:43.887Z,2916.00
2018-12-30T10:08:47.844Z,3504.00
2018-12-30T10:09:45.822Z,3356.00
2018-12-30T10:10:46.327Z,2820.00
2018-12-30T10:11:46.320Z,2448.00
2018-12-30T10:12:44.812Z,2584.00
2018-12-30T10:13:44.905Z,2292.00
2018-12-30T10:14:45.126Z,2576.00
2018-12-30T10:15:46.837Z,2616.00
2018-12-30T10:16:47.320Z,2364.00
2018-12-30T10:17:46.659Z,2360.00
2018-12-30T10:18:45.869Z,2344.00
2018-12-30T10:19:48.112Z,2416.00
2018-12-30T10:20:46.201Z,2568.00
2018-12-30T10:21:46.401Z,2560.00
2018-12-30T10:22:50.336Z,2416.00
2018-12-30T10:23:52.869Z,2460.00
2018-12-30T10:24:49.787Z,2288.00
2018-12-30T10:25:47.139Z,2344.00
2018-12-30T10:26:53.410Z,2444.00
2018-12-30T10:27:47.562Z,2536.00
2018-12-30T10:28:47.795Z,2528.00
2018-12-30T10:29:48.000Z,2364.00
2018-12-30T10:30:49.846Z,2524.00
2018-12-30T10:31:49.822Z,2772.00
2018-12-30T10:32:50.377Z,2776.00
2018-12-30T10:33:48.741Z,2860.00
2018-12-30T10:34:49.947Z,2828.00
2018-12-30T10:35:51.750Z,2836.00
2018-12-30T10:36:49.340Z,2848.00
2018-12-30T10:37:49.556Z,2988.00
2018-12-30T10:38:51.384Z,4048.00
2018-12-30T10:39:49.916Z,3764.00
2018-12-30T10:40:53.825Z,4004.00
2018-12-30T10:41:51.819Z,3476.00
2018-12-30T10:42:51.274Z,2628.00
2018-12-30T10:43:51.634Z,2732.00
2018-12-30T10:44:50.875Z,2552.00
2018-12-30T10:45:50.982Z,2756.00
2018-12-30T10:46:52.225Z,3512.00
2018-12-30T10:47:53.351Z,4804.00
2018-12-30T10:48:51.564Z,6772.00
2018-12-30T10:49:53.322Z,6748.00
2018-12-30T10:50:51.966Z,5824.00
2018-12-30T10:51:52.158Z,5744.00
2018-12-30T10:52:54.334Z,4568.00
2018-12-30T10:54:00.503Z,3688.00
2018-12-30T10:54:54.329Z,2820.00
2018-12-30T10:55:53.910Z,2728.00
2018-12-30T10:56:58.840Z,2740.00
2018-12-30T10:57:54.832Z,3496.00
2018-12-30T10:58:53.443Z,3392.00
2018-12-30T10:59:55.323Z,2968.00
2018-12-30T11:00:57.337Z,2852.00
2018-12-30T11:01:53.911Z,3332.00
2018-12-30T11:02:54.117Z,3132.00
2018-12-30T11:03:55.848Z,3068.00
2018-12-30T11:04:54.437Z,3392.00
2018-12-30T11:05:55.658Z,2996.00
2018-12-30T11:06:58.829Z,2836.00
2018-12-30T11:07:55.105Z,3072.00
2018-12-30T11:08:57.839Z,4104.00
2018-12-30T11:09:57.322Z,5288.00
2018-12-30T11:10:57.330Z,5592.00
2018-12-30T11:11:57.339Z,5064.00
2018-12-30T11:12:59.825Z,4560.00
2018-12-30T11:13:58.839Z,4324.00
2018-12-30T11:14:57.825Z,5348.00
2018-12-30T11:15:56.422Z,7064.00
2018-12-30T11:16:58.342Z,5320.00
2018-12-30T11:17:58.326Z,5016.00
2018-12-30T11:18:56.909Z,6492.00
2018-12-30T11:19:58.538Z,8152.00
2018-12-30T11:20:57.249Z,6636.00
2018-12-30T11:21:57.449Z,5376.00
2018-12-30T11:22:57.677Z,5312.00
2018-12-30T11:23:58.797Z,4768.00
2018-12-30T11:24:58.005Z,4884.00
2018-12-30T11:25:59.836Z,4856.00
2018-12-30T11:27:00.329Z,5916.00
2018-12-30T11:27:58.582Z,7964.00
2018-12-30T11:29:00.347Z,10464.00
2018-12-30T11:29:58.808Z,12524.00
2018-12-30T11:31:00.827Z,8192.00
2018-12-30T11:31:59.160Z,9500.00
2018-12-30T11:33:03.339Z,9136.00
2018-12-30T11:33:59.596Z,8052.00
2018-12-30T11:34:59.701Z,9360.00
2018-12-30T11:35:59.912Z,12984.00
2018-12-30T11:37:00.098Z,12232.00
2018-12-30T11:38:01.827Z,10760.00
2018-12-30T11:39:00.571Z,9384.00
2018-12-30T11:40:00.676Z,8824.00
2018-12-30T11:41:02.835Z,8176.00
2018-12-30T11:42:04.834Z,9024.00
2018-12-30T11:43:01.170Z,9264.00
2018-12-30T11:44:03.327Z,9240.00
2018-12-30T11:45:05.332Z,10924.00
2018-12-30T11:46:01.667Z,14644.00
2018-12-30T11:47:03.948Z,16640.00
2018-12-30T11:48:03.848Z,15196.00
2018-12-30T11:49:03.835Z,15460.00
2018-12-30T11:50:02.299Z,13812.00
2018-12-30T11:51:02.523Z,13288.00
2018-12-30T11:52:02.731Z,13032.00
2018-12-30T11:53:03.006Z,11784.00
2018-12-30T11:54:03.069Z,9424.00
2018-12-30T11:55:03.279Z,8252.00
2018-12-30T11:56:03.480Z,8516.00
2018-12-30T11:57:07.342Z,8660.00
2018-12-30T11:58:03.816Z,8412.00
2018-12-30T11:59:06.865Z,9884.00
2018-12-30T12:00:04.167Z,19232.00
2018-12-30T12:01:06.336Z,16000.00
2018-12-30T12:02:06.329Z,17856.00
2018-12-30T12:03:06.325Z,13620.00
2018-12-30T12:04:04.790Z,17088.00
2018-12-30T12:05:06.847Z,12636.00
2018-12-30T12:06:05.167Z,23712.00
2018-12-30T12:07:05.416Z,18528.00
2018-12-30T12:08:05.641Z,11584.00
2018-12-30T12:09:05.850Z,10116.00
2018-12-30T12:10:06.075Z,16800.00
2018-12-30T12:11:06.193Z,12840.00
2018-12-30T12:12:08.329Z,13036.00
2018-12-30T12:13:06.543Z,14112.00
2018-12-30T12:14:06.759Z,14232.00
2018-12-30T12:15:06.978Z,16064.00
2018-12-30T12:16:07.180Z,13664.00
2018-12-30T12:17:09.329Z,14984.00
2018-12-30T12:18:07.548Z,14188.00
2018-12-30T12:19:11.369Z,13892.00
2018-12-30T12:20:09.833Z,11192.00
2018-12-30T12:21:09.830Z,10664.00
2018-12-30T12:22:09.828Z,12580.00
2018-12-30T12:23:08.292Z,16608.00
2018-12-30T12:24:08.540Z,13800.00
2018-12-30T12:25:08.650Z,17120.00
2018-12-30T12:26:08.864Z,13680.00
2018-12-30T12:27:09.074Z,18016.00
2018-12-30T12:28:09.288Z,11332.00
2018-12-30T12:29:09.509Z,10192.00
2018-12-30T12:30:11.353Z,9824.00
2018-12-30T12:31:09.953Z,10428.00
2018-12-30T12:32:10.168Z,12264.00
2018-12-30T12:33:10.401Z,12684.00
2018-12-30T12:34:10.498Z,11668.00
2018-12-30T12:35:10.731Z,11316.00
2018-12-30T12:36:10.929Z,10964.00
2018-12-30T12:37:12.834Z,11784.00
2018-12-30T12:38:11.304Z,14472.00
2018-12-30T12:39:11.519Z,15240.00
2018-12-30T12:40:11.738Z,15008.00
2018-12-30T12:41:12.964Z,12980.00
2018-12-30T12:42:12.189Z,26848.00
2018-12-30T12:43:14.335Z,26368.00
2018-12-30T12:44:14.337Z,25024.00
2018-12-30T12:45:12.713Z,19104.00
2018-12-30T12:46:14.837Z,19776.00
2018-12-30T12:47:13.094Z,11500.00
2018-12-30T12:48:13.208Z,10304.00
2018-12-30T12:49:13.447Z,10008.00